Santa Nikolas — V7TV6 — position and weather

sailwx.info

Track history (hours):
 
Tides and Currents Weather Stations Pressure Air Temp Water Temp Dewpoint Dewpoint Depression Visibility Wind Speed Wind Dir Waves Ship Positions

Santa Nikolas

Last reported at 2017-Apr-21 13:45 UTC. Time now 2017-May-01 02:22 UTC.
Position N 22°28' E 119°57'.
Warning: this ship's position is 9 days out of date.

Length 190 m; draft 11.3 m.

Type: Cargo ship. MMSI: 538003892.

Date/timePositionNaut miles runAvg speedWind from/ knotsBaromVisibWave heightAir tempDewpointWater temp
2017-Apr-21 13:45N 22°28' E 119°57'312.6
2017-Apr-21 13:30N 22°29' E 120°00'612.7
2017-Apr-21 13:00N 22°31' E 120°07'612.9
2017-Apr-21 12:30N 22°32' E 120°14'5 9.9
2017-Apr-21 11:59N 22°33' E 120°19'1 0.4
2017-Apr-21 10:02N 22°34' E 120°20'0 0.0
2017-Apr-21 09:50N 22°34' E 120°20'0 0.0
2017-Apr-21 09:17N 22°34' E 120°20'0 0.0
2017-Apr-21 08:56N 22°34' E 120°20'0 0.0
2017-Apr-21 07:47N 22°34' E 120°20'0 0.0
2017-Apr-21 07:11N 22°34' E 120°20'0 0.0
2017-Apr-21 06:56N 22°34' E 120°20'0 0.0
2017-Apr-21 06:29N 22°34' E 120°20'0 0.0
2017-Apr-21 05:59N 22°34' E 120°20'0 0.0
2017-Apr-21 05:11N 22°34' E 120°20'0 0.0
2017-Apr-21 04:50N 22°34' E 120°20'0 0.0
2017-Apr-21 04:26N 22°34' E 120°20'0 0.0
2017-Apr-21 03:53N 22°34' E 120°20'0 0.0
2017-Apr-21 02:23N 22°34' E 120°20'0 0.0
2017-Apr-20 10:02N 22°34' E 120°20'0 0.1
2017-Apr-20 09:59N 22°34' E 120°20'0 0.0
2017-Apr-20 09:29N 22°34' E 120°20'0 0.0
2017-Apr-20 08:53N 22°34' E 120°20'0 0.0
2017-Apr-20 08:23N 22°34' E 120°20'0 0.0
2017-Apr-20 06:35N 22°34' E 120°20'0 0.0
2017-Apr-20 06:11N 22°34' E 120°20'0 0.0
2017-Apr-20 03:05N 22°34' E 120°20'0 0.1
2017-Apr-20 02:59N 22°34' E 120°20'0 0.0
2017-Apr-19 09:20N 22°34' E 120°20'0 0.0
2017-Apr-19 08:50N 22°34' E 120°20'0 0.0
2017-Apr-19 08:23N 22°34' E 120°20'0 0.0
2017-Apr-19 07:47N 22°34' E 120°20'0 0.0
2017-Apr-19 07:17N 22°34' E 120°20'0 0.0
2017-Apr-19 05:41N 22°34' E 120°20'0 0.0
2017-Apr-19 05:26N 22°34' E 120°20'0 0.0
2017-Apr-19 03:41N 22°34' E 120°20'0 0.0
2017-Apr-19 03:29N 22°34' E 120°20'0 0.0
2017-Apr-19 02:26N 22°34' E 120°20'0 0.0
2017-Apr-19 01:56N 22°34' E 120°20'0 0.0
2017-Apr-19 01:29N 22°34' E 120°20'4 1.4
2017-Apr-18 22:56N 22°32' E 120°16'1 0.2
2017-Apr-18 15:12N 22°31' E 120°17'0 0.0
2017-Apr-18 14:57N 22°31' E 120°17'0 0.0
2017-Apr-18 14:30N 22°31' E 120°17'0 0.1
2017-Apr-18 13:30N 22°31' E 120°17'0 0.0
2017-Apr-18 13:00N 22°31' E 120°17'0 0.0
2017-Apr-18 12:30N 22°31' E 120°17'0 0.1
2017-Apr-18 12:00N 22°31' E 120°17'0 0.1
2017-Apr-18 11:30N 22°31' E 120°17'0 0.1
2017-Apr-18 11:00N 22°31' E 120°16'0 0.0
2017-Apr-18 10:30N 22°31' E 120°16'0 0.0
2017-Apr-18 10:00N 22°31' E 120°16'0 0.2
2017-Apr-18 09:27N 22°31' E 120°17'1 3.0
2017-Apr-18 09:01N 22°31' E 120°15'5 9.2
2017-Apr-18 08:30N 22°33' E 120°11'713.0
2017-Apr-18 08:00N 22°38' E 120°05'714.1
2017-Apr-18 07:31N 22°43' E 120°01'612.9
2017-Apr-18 07:00N 22°49' E 119°58'  
2017-Apr-14 15:39N 38°18' E 121°51'412.9
2017-Apr-14 15:19N 38°19' E 121°46'1913.1
2017-Apr-14 13:53N 38°24' E 121°23'5513.3
2017-Apr-14 09:43N 38°38' E 120°14'312.8
2017-Apr-14 09:31N 38°38' E 120°11'712.5
2017-Apr-14 08:58N 38°40' E 120°02'612.1
2017-Apr-14 08:29N 38°41' E 119°55'1012.2
2017-Apr-14 07:39N 38°42' E 119°42'212.0
2017-Apr-14 07:29N 38°42' E 119°40'712.0
2017-Apr-14 06:56N 38°43' E 119°31'  
Track history (hours):
 
Tides and Currents Weather Stations Pressure Air Temp Water Temp Dewpoint Dewpoint Depression Visibility Wind Speed Wind Dir Waves Ship Positions

Santa Nikolas

Last reported at 2017-Apr-21 13:45 UTC. Time now 2017-May-01 02:22 UTC.
Position N 22°28' E 119°57'.
Warning: this ship's position is 9 days out of date.

Length 190 m; draft 11.3 m.

Type: Cargo ship. MMSI: 538003892.

Date/timePositionNaut miles runAvg speedWind from/ knotsBaromVisibWave heightAir tempDewpointWater temp
2017-Apr-21 13:45N 22°28' E 119°57'312.6
2017-Apr-21 13:30N 22°29' E 120°00'612.7
2017-Apr-21 13:00N 22°31' E 120°07'612.9
2017-Apr-21 12:30N 22°32' E 120°14'5 9.9
2017-Apr-21 11:59N 22°33' E 120°19'1 0.4
2017-Apr-21 10:02N 22°34' E 120°20'0 0.0
2017-Apr-21 09:50N 22°34' E 120°20'0 0.0
2017-Apr-21 09:17N 22°34' E 120°20'0 0.0
2017-Apr-21 08:56N 22°34' E 120°20'0 0.0
2017-Apr-21 07:47N 22°34' E 120°20'0 0.0
2017-Apr-21 07:11N 22°34' E 120°20'0 0.0
2017-Apr-21 06:56N 22°34' E 120°20'0 0.0
2017-Apr-21 06:29N 22°34' E 120°20'0 0.0
2017-Apr-21 05:59N 22°34' E 120°20'0 0.0
2017-Apr-21 05:11N 22°34' E 120°20'0 0.0
2017-Apr-21 04:50N 22°34' E 120°20'0 0.0
2017-Apr-21 04:26N 22°34' E 120°20'0 0.0
2017-Apr-21 03:53N 22°34' E 120°20'0 0.0
2017-Apr-21 02:23N 22°34' E 120°20'0 0.0
2017-Apr-20 10:02N 22°34' E 120°20'0 0.1
2017-Apr-20 09:59N 22°34' E 120°20'0 0.0
2017-Apr-20 09:29N 22°34' E 120°20'0 0.0
2017-Apr-20 08:53N 22°34' E 120°20'0 0.0
2017-Apr-20 08:23N 22°34' E 120°20'0 0.0
2017-Apr-20 06:35N 22°34' E 120°20'0 0.0
2017-Apr-20 06:11N 22°34' E 120°20'0 0.0
2017-Apr-20 03:05N 22°34' E 120°20'0 0.1
2017-Apr-20 02:59N 22°34' E 120°20'0 0.0
2017-Apr-19 09:20N 22°34' E 120°20'0 0.0
2017-Apr-19 08:50N 22°34' E 120°20'0 0.0
2017-Apr-19 08:23N 22°34' E 120°20'0 0.0
2017-Apr-19 07:47N 22°34' E 120°20'0 0.0
2017-Apr-19 07:17N 22°34' E 120°20'0 0.0
2017-Apr-19 05:41N 22°34' E 120°20'0 0.0
2017-Apr-19 05:26N 22°34' E 120°20'0 0.0
2017-Apr-19 03:41N 22°34' E 120°20'0 0.0
2017-Apr-19 03:29N 22°34' E 120°20'0 0.0
2017-Apr-19 02:26N 22°34' E 120°20'0 0.0
2017-Apr-19 01:56N 22°34' E 120°20'0 0.0
2017-Apr-19 01:29N 22°34' E 120°20'4 1.4
2017-Apr-18 22:56N 22°32' E 120°16'1 0.2
2017-Apr-18 15:12N 22°31' E 120°17'0 0.0
2017-Apr-18 14:57N 22°31' E 120°17'0 0.0
2017-Apr-18 14:30N 22°31' E 120°17'0 0.1
2017-Apr-18 13:30N 22°31' E 120°17'0 0.0
2017-Apr-18 13:00N 22°31' E 120°17'0 0.0
2017-Apr-18 12:30N 22°31' E 120°17'0 0.1
2017-Apr-18 12:00N 22°31' E 120°17'0 0.1
2017-Apr-18 11:30N 22°31' E 120°17'0 0.1
2017-Apr-18 11:00N 22°31' E 120°16'0 0.0
2017-Apr-18 10:30N 22°31' E 120°16'0 0.0
2017-Apr-18 10:00N 22°31' E 120°16'0 0.2
2017-Apr-18 09:27N 22°31' E 120°17'1 3.0
2017-Apr-18 09:01N 22°31' E 120°15'5 9.2
2017-Apr-18 08:30N 22°33' E 120°11'713.0
2017-Apr-18 08:00N 22°38' E 120°05'714.1
2017-Apr-18 07:31N 22°43' E 120°01'612.9
2017-Apr-18 07:00N 22°49' E 119°58'  
2017-Apr-14 15:39N 38°18' E 121°51'412.9
2017-Apr-14 15:19N 38°19' E 121°46'1913.1
2017-Apr-14 13:53N 38°24' E 121°23'5513.3
2017-Apr-14 09:43N 38°38' E 120°14'312.8
2017-Apr-14 09:31N 38°38' E 120°11'712.5
2017-Apr-14 08:58N 38°40' E 120°02'612.1
2017-Apr-14 08:29N 38°41' E 119°55'1012.2
2017-Apr-14 07:39N 38°42' E 119°42'212.0
2017-Apr-14 07:29N 38°42' E 119°40'712.0
2017-Apr-14 06:56N 38°43' E 119°31'  

Dump ship's entire track history